Time;durP1;ratioP1;P1;durP2;ratioP2;P2;SDS_P1;SDS_P2;PMS_P1;PMS_P2;Temp;Humidity;BMP_temperature;BMP_pressure;BME280_temperature;BME280_humidity;BME280_pressure;Samples;Min_cycle;Max_cycle;Signal;HPM_P1;HPM_P2
2023/11/11 00:02:02;;;;;;;7.30;6.60;;;;;;;;;;5112479;28;20749;-79
2023/11/11 00:04:29;;;;;;;11.27;8.00;;;;;;;;;;5099763;28;20205;-79
2023/11/11 00:06:56;;;;;;;9.67;8.60;;;;;;;;;;5093236;28;20681;-79
2023/11/11 00:09:24;;;;;;;8.67;7.77;;;;;;;;;;5106143;28;20197;-80
2023/11/11 00:11:51;;;;;;;9.70;8.80;;;;;;;;;;5105367;28;20235;-79
2023/11/11 00:14:18;;;;;;;9.27;8.40;;;;;;;;;;5092234;28;20262;-79
2023/11/11 00:16:45;;;;;;;8.40;7.57;;;;;;;;;;5099921;28;20202;-79
2023/11/11 00:19:11;;;;;;;8.87;7.57;;;;;;;;;;5098816;28;20206;-79
2023/11/11 00:21:41;;;;;;;7.00;6.17;;;;;;;;;;5105060;28;20593;-79
2023/11/11 00:24:10;;;;;;;7.73;6.93;;;;;;;;;;5106142;28;20200;-79
2023/11/11 00:26:40;;;;;;;6.20;5.60;;;;;;;;;;5100666;28;20661;-79
2023/11/11 00:29:07;;;;;;;7.77;7.07;;;;;;;;;;5096041;28;20215;-79
2023/11/11 00:31:35;;;;;;;8.50;5.17;;;;;;;;;;5092188;28;20671;-79
2023/11/11 00:34:02;;;;;;;6.10;5.57;;;;;;;;;;5105258;28;20717;-79
2023/11/11 00:36:29;;;;;;;5.87;5.27;;;;;;;;;;5092147;28;20606;-79
2023/11/11 00:38:56;;;;;;;5.93;5.33;;;;;;;;;;5091550;28;20208;-78
2023/11/11 00:41:23;;;;;;;6.23;5.27;;;;;;;;;;5091881;28;20232;-79
2023/11/11 00:43:51;;;;;;;6.03;5.43;;;;;;;;;;5091589;28;20692;-79
2023/11/11 00:46:18;;;;;;;6.60;6.00;;;;;;;;;;5091986;28;20202;-79
2023/11/11 00:48:45;;;;;;;6.23;5.73;;;;;;;;;;5104741;28;20745;-79
2023/11/11 00:51:12;;;;;;;6.23;5.63;;;;;;;;;;5092147;28;20261;-80
2023/11/11 00:53:38;;;;;;;6.63;5.97;;;;;;;;;;5091842;28;20229;-79
2023/11/11 00:56:06;;;;;;;5.73;5.10;;;;;;;;;;5091286;28;20211;-80
2023/11/11 00:58:33;;;;;;;6.77;5.50;;;;;;;;;;5105453;28;20198;-80
2023/11/11 01:01:03;;;;;;;7.57;6.33;;;;;;;;;;5103639;28;20204;-79
2023/11/11 01:03:30;;;;;;;7.40;6.63;;;;;;;;;;5092915;28;20196;-80
2023/11/11 01:05:56;;;;;;;5.87;5.37;;;;;;;;;;5091286;28;20211;-80
2023/11/11 01:08:23;;;;;;;7.50;6.13;;;;;;;;;;5096356;28;20199;-80
2023/11/11 01:10:50;;;;;;;6.73;6.13;;;;;;;;;;5099867;28;20200;-80
2023/11/11 01:13:17;;;;;;;6.50;5.60;;;;;;;;;;5104970;28;20230;-80
2023/11/11 01:15:45;;;;;;;5.60;5.10;;;;;;;;;;5091509;28;20211;-81
2023/11/11 01:18:13;;;;;;;7.53;5.77;;;;;;;;;;5104932;28;20192;-81
2023/11/11 01:20:40;;;;;;;7.17;5.53;;;;;;;;;;5091165;28;20211;-81
2023/11/11 01:23:07;;;;;;;8.73;6.43;;;;;;;;;;5096614;28;20200;-81
2023/11/11 01:25:34;;;;;;;6.27;5.67;;;;;;;;;;5098427;28;20287;-81
2023/11/11 01:28:01;;;;;;;8.13;6.23;;;;;;;;;;5091149;28;20781;-80
2023/11/11 01:30:28;;;;;;;8.87;6.73;;;;;;;;;;5103788;28;20200;-80
2023/11/11 01:32:55;;;;;;;9.90;6.40;;;;;;;;;;5110892;28;20607;-81
2023/11/11 01:35:23;;;;;;;23.90;13.07;;;;;;;;;;5098098;28;20201;-81
2023/11/11 01:37:49;;;;;;;14.43;9.47;;;;;;;;;;5091174;28;20196;-81
2023/11/11 01:40:18;;;;;;;10.23;7.33;;;;;;;;;;5104243;28;20203;-81
2023/11/11 01:42:45;;;;;;;10.23;7.03;;;;;;;;;;5091213;28;20236;-81
2023/11/11 01:45:12;;;;;;;22.37;12.13;;;;;;;;;;5091957;28;20204;-81
2023/11/11 01:47:39;;;;;;;12.07;8.77;;;;;;;;;;5103565;28;20188;-81
2023/11/11 01:50:07;;;;;;;15.23;10.47;;;;;;;;;;5105054;28;20235;-80
2023/11/11 01:52:37;;;;;;;7.27;6.20;;;;;;;;;;5111308;28;20284;-81
2023/11/11 01:55:05;;;;;;;5.80;5.30;;;;;;;;;;5095921;28;20219;-81
2023/11/11 01:57:32;;;;;;;6.17;5.57;;;;;;;;;;5099501;28;20201;-80
2023/11/11 02:00:00;;;;;;;6.40;5.83;;;;;;;;;;5095010;28;20200;-80
2023/11/11 02:02:27;;;;;;;7.07;6.37;;;;;;;;;;5090482;28;20208;-80
2023/11/11 02:04:53;;;;;;;10.53;7.77;;;;;;;;;;5090745;28;20193;-80
2023/11/11 02:07:20;;;;;;;7.53;6.20;;;;;;;;;;5090967;28;20612;-80
2023/11/11 02:09:48;;;;;;;18.23;11.33;;;;;;;;;;5090343;28;20204;-81
2023/11/11 02:12:15;;;;;;;23.07;14.30;;;;;;;;;;5090529;28;20616;-80
2023/11/11 02:14:44;;;;;;;31.73;15.93;;;;;;;;;;5090410;28;20196;-81
2023/11/11 02:17:11;;;;;;;17.90;11.27;;;;;;;;;;5090491;28;20265;-81
2023/11/11 02:19:38;;;;;;;9.57;7.77;;;;;;;;;;5090268;28;20669;-80
2023/11/11 02:22:05;;;;;;;13.17;9.43;;;;;;;;;;5091124;28;20200;-80
2023/11/11 02:24:34;;;;;;;6.87;5.90;;;;;;;;;;5090448;28;20192;-81
2023/11/11 02:27:01;;;;;;;7.40;5.27;;;;;;;;;;5090398;28;20215;-81
2023/11/11 02:29:28;;;;;;;6.17;5.53;;;;;;;;;;5090556;28;20273;-81
2023/11/11 02:31:55;;;;;;;6.33;5.73;;;;;;;;;;5090566;28;20232;-80
2023/11/11 02:34:22;;;;;;;8.30;6.53;;;;;;;;;;5095620;28;20635;-81
2023/11/11 02:36:50;;;;;;;7.07;6.40;;;;;;;;;;5110995;28;20655;-81
2023/11/11 02:39:17;;;;;;;6.60;5.97;;;;;;;;;;5091157;28;20211;-81
2023/11/11 02:41:45;;;;;;;8.33;6.00;;;;;;;;;;5105350;28;20257;-81
2023/11/11 02:44:12;;;;;;;6.00;5.43;;;;;;;;;;5113984;28;20200;-81
2023/11/11 02:46:39;;;;;;;8.47;6.67;;;;;;;;;;5114973;28;20257;-80
2023/11/11 02:49:06;;;;;;;6.70;6.10;;;;;;;;;;5101061;28;20212;-80
2023/11/11 02:51:34;;;;;;;65.50;32.80;;;;;;;;;;5100270;28;20200;-81
2023/11/11 02:54:01;;;;;;;30.73;18.00;;;;;;;;;;5093936;28;20325;-81
2023/11/11 02:56:28;;;;;;;137.27;62.23;;;;;;;;;;5094390;28;20200;-81
2023/11/11 02:58:56;;;;;;;134.27;65.67;;;;;;;;;;5094106;28;20204;-80
2023/11/11 03:01:23;;;;;;;69.93;37.00;;;;;;;;;;5107439;28;20203;-80
2023/11/11 03:03:50;;;;;;;18.90;11.20;;;;;;;;;;5101942;28;20196;-81
2023/11/11 03:06:17;;;;;;;38.57;21.03;;;;;;;;;;5112597;28;20245;-81
2023/11/11 03:08:44;;;;;;;43.33;21.57;;;;;;;;;;5101831;28;20196;-81
2023/11/11 03:11:13;;;;;;;25.40;15.23;;;;;;;;;;5098752;28;20204;-81
2023/11/11 03:13:42;;;;;;;16.90;10.43;;;;;;;;;;5102576;28;20215;-81
2023/11/11 03:16:11;;;;;;;15.63;10.10;;;;;;;;;;5097737;28;20686;-81
2023/11/11 03:18:38;;;;;;;12.63;8.60;;;;;;;;;;5103661;28;20249;-81
2023/11/11 03:21:05;;;;;;;12.63;9.13;;;;;;;;;;5100558;28;20246;-81
2023/11/11 03:23:32;;;;;;;9.57;8.20;;;;;;;;;;5103241;28;20314;-80
2023/11/11 03:25:59;;;;;;;9.70;7.27;;;;;;;;;;5107031;28;20586;-81
2023/11/11 03:28:26;;;;;;;7.93;6.23;;;;;;;;;;5104517;28;20208;-81
2023/11/11 03:30:53;;;;;;;9.70;6.97;;;;;;;;;;5096035;28;20261;-81
2023/11/11 03:33:21;;;;;;;6.70;6.00;;;;;;;;;;5093077;28;20263;-81
2023/11/11 03:35:50;;;;;;;14.13;10.17;;;;;;;;;;5098122;28;20199;-81
2023/11/11 03:38:18;;;;;;;9.57;8.53;;;;;;;;;;5101653;28;20273;-81
2023/11/11 03:40:45;;;;;;;7.77;5.77;;;;;;;;;;5106322;28;20197;-81
2023/11/11 03:43:12;;;;;;;7.97;7.13;;;;;;;;;;5093409;28;20231;-79
2023/11/11 03:45:38;;;;;;;6.87;5.87;;;;;;;;;;5106581;28;20197;-81
2023/11/11 03:48:06;;;;;;;6.83;5.43;;;;;;;;;;5093104;28;20207;-81
2023/11/11 03:50:34;;;;;;;5.90;5.17;;;;;;;;;;5092413;28;20204;-81
2023/11/11 03:53:03;;;;;;;6.93;5.47;;;;;;;;;;5105813;28;20227;-80
2023/11/11 03:55:31;;;;;;;5.10;4.60;;;;;;;;;;5092750;28;20203;-81
2023/11/11 03:57:58;;;;;;;15.30;9.50;;;;;;;;;;5092646;28;20210;-81
2023/11/11 04:00:25;;;;;;;14.83;10.43;;;;;;;;;;5092408;28;20196;-81
2023/11/11 04:02:53;;;;;;;30.50;19.13;;;;;;;;;;5093017;28;20204;-81
2023/11/11 04:05:21;;;;;;;10.87;7.80;;;;;;;;;;5112352;28;20200;-81
2023/11/11 04:07:49;;;;;;;6.47;5.33;;;;;;;;;;5099329;28;20200;-81
2023/11/11 04:10:17;;;;;;;6.00;5.50;;;;;;;;;;5099434;28;20196;-81
2023/11/11 04:12:44;;;;;;;14.80;8.50;;;;;;;;;;5098955;28;20644;-82
2023/11/11 04:15:11;;;;;;;58.33;29.07;;;;;;;;;;5105791;28;20204;-81
2023/11/11 04:17:40;;;;;;;31.50;17.30;;;;;;;;;;5107074;28;20231;-81
2023/11/11 04:20:09;;;;;;;7.60;6.37;;;;;;;;;;5112548;28;20239;-81
2023/11/11 04:22:36;;;;;;;5.57;5.07;;;;;;;;;;5097232;28;20203;-81
2023/11/11 04:25:06;;;;;;;6.30;5.50;;;;;;;;;;5092248;28;20212;-81
2023/11/11 04:27:32;;;;;;;5.33;4.77;;;;;;;;;;5091798;28;20207;-81
2023/11/11 04:29:59;;;;;;;5.53;5.03;;;;;;;;;;5101713;28;21017;-81
2023/11/11 04:32:26;;;;;;;6.13;5.53;;;;;;;;;;5095616;28;20238;-81
2023/11/11 04:34:53;;;;;;;5.30;4.80;;;;;;;;;;5091794;28;20224;-81
2023/11/11 04:37:20;;;;;;;8.30;6.87;;;;;;;;;;5095418;28;20196;-82
2023/11/11 04:39:46;;;;;;;10.10;7.23;;;;;;;;;;5112538;28;20203;-81
2023/11/11 04:42:15;;;;;;;6.97;6.27;;;;;;;;;;5108774;28;20301;-82
2023/11/11 04:44:42;;;;;;;7.33;6.63;;;;;;;;;;5092110;28;20203;-81
2023/11/11 04:47:09;;;;;;;9.23;7.23;;;;;;;;;;5109692;28;20662;-81
2023/11/11 04:49:37;;;;;;;7.00;5.73;;;;;;;;;;5112309;28;20208;-81
2023/11/11 04:52:04;;;;;;;7.47;6.63;;;;;;;;;;5093438;28;20204;-80
2023/11/11 04:54:31;;;;;;;8.93;7.43;;;;;;;;;;5103914;28;20227;-82
2023/11/11 04:56:59;;;;;;;12.77;7.07;;;;;;;;;;5098550;28;20212;-81
2023/11/11 04:59:28;;;;;;;7.20;6.33;;;;;;;;;;5098673;28;20208;-82
2023/11/11 05:01:55;;;;;;;6.80;5.50;;;;;;;;;;5091908;28;20576;-81
2023/11/11 05:04:22;;;;;;;6.17;5.57;;;;;;;;;;5090694;28;20215;-81
2023/11/11 05:06:49;;;;;;;5.70;5.20;;;;;;;;;;5091842;28;20314;-82
2023/11/11 05:09:16;;;;;;;7.17;6.47;;;;;;;;;;5103766;28;20207;-82
2023/11/11 05:11:45;;;;;;;8.03;5.47;;;;;;;;;;5092629;28;20591;-80
2023/11/11 05:14:13;;;;;;;6.73;5.57;;;;;;;;;;5091350;28;20218;-81
2023/11/11 05:16:44;;;;;;;7.13;6.43;;;;;;;;;;5091810;28;20203;-81
2023/11/11 05:19:12;;;;;;;13.23;10.57;;;;;;;;;;5105412;28;20200;-82
2023/11/11 05:21:38;;;;;;;14.07;12.70;;;;;;;;;;5104240;28;20645;-81
2023/11/11 05:24:06;;;;;;;17.17;15.47;;;;;;;;;;5092206;28;20208;-82
2023/11/11 05:26:33;;;;;;;9.33;8.43;;;;;;;;;;5103549;28;20231;-81
2023/11/11 05:29:01;;;;;;;8.80;7.37;;;;;;;;;;5091256;28;20567;-82
2023/11/11 05:31:31;;;;;;;8.83;7.63;;;;;;;;;;5099370;28;20310;-81
2023/11/11 05:33:59;;;;;;;18.57;15.00;;;;;;;;;;5110841;28;20648;-81
2023/11/11 05:36:26;;;;;;;12.33;10.87;;;;;;;;;;5111228;28;20203;-81
2023/11/11 05:38:54;;;;;;;8.23;7.43;;;;;;;;;;5095997;28;20238;-81
2023/11/11 05:41:21;;;;;;;7.97;7.23;;;;;;;;;;5100632;28;20231;-81
2023/11/11 05:43:48;;;;;;;18.23;14.80;;;;;;;;;;5094233;28;20204;-82
2023/11/11 05:46:15;;;;;;;53.13;34.27;;;;;;;;;;5091339;28;20196;-83
2023/11/11 05:48:42;;;;;;;24.20;16.77;;;;;;;;;;5091154;28;20211;-82
2023/11/11 05:51:10;;;;;;;23.80;17.07;;;;;;;;;;5090744;28;20211;-82
2023/11/11 05:53:37;;;;;;;27.80;17.53;;;;;;;;;;5090775;28;20216;-80
2023/11/11 05:56:08;;;;;;;19.33;14.13;;;;;;;;;;5090985;28;20200;-81
2023/11/11 05:58:34;;;;;;;14.23;9.90;;;;;;;;;;5105973;28;20202;-81
2023/11/11 06:01:01;;;;;;;11.10;9.93;;;;;;;;;;5099784;28;20204;-81
2023/11/11 06:03:29;;;;;;;11.30;10.20;;;;;;;;;;5098565;28;20214;-83
2023/11/11 06:05:55;;;;;;;13.17;10.20;;;;;;;;;;5110628;28;20286;-81
2023/11/11 06:08:23;;;;;;;15.53;11.13;;;;;;;;;;5108982;28;20210;-81
2023/11/11 06:10:50;;;;;;;10.87;9.30;;;;;;;;;;5105784;28;20211;-81
2023/11/11 06:13:17;;;;;;;13.17;9.80;;;;;;;;;;5110727;28;20208;-81
2023/11/11 06:15:44;;;;;;;11.93;9.43;;;;;;;;;;5104074;27;20192;-82
2023/11/11 06:18:13;;;;;;;14.03;11.70;;;;;;;;;;5111291;28;20200;-81
2023/11/11 06:20:40;;;;;;;13.63;11.87;;;;;;;;;;5110688;28;20206;-80
2023/11/11 06:23:07;;;;;;;12.53;11.20;;;;;;;;;;5114687;28;20199;-81
2023/11/11 06:25:37;;;;;;;11.40;8.93;;;;;;;;;;5114450;28;20200;-81
2023/11/11 06:28:04;;;;;;;22.50;19.33;;;;;;;;;;5114980;28;20200;-81
2023/11/11 06:30:32;;;;;;;17.87;14.40;;;;;;;;;;5105094;28;20247;-81
2023/11/11 06:33:02;;;;;;;15.67;12.27;;;;;;;;;;5105181;28;20204;-81
2023/11/11 06:35:28;;;;;;;12.63;10.47;;;;;;;;;;5110881;28;20224;-81
2023/11/11 06:37:56;;;;;;;10.70;9.47;;;;;;;;;;5107517;28;20207;-82
2023/11/11 06:40:23;;;;;;;12.37;9.73;;;;;;;;;;5102815;28;20227;-81
2023/11/11 06:42:54;;;;;;;14.47;13.00;;;;;;;;;;5112123;28;20227;-81
2023/11/11 06:45:21;;;;;;;14.70;13.27;;;;;;;;;;5114671;28;20594;-81
2023/11/11 06:47:48;;;;;;;15.63;12.10;;;;;;;;;;5099022;28;20197;-79
2023/11/11 06:50:17;;;;;;;19.40;17.27;;;;;;;;;;5094579;28;20200;-82
2023/11/11 06:52:44;;;;;;;15.83;14.13;;;;;;;;;;5094598;28;20196;-80
2023/11/11 06:55:11;;;;;;;13.90;12.00;;;;;;;;;;5107692;28;20234;-81
2023/11/11 06:57:38;;;;;;;12.07;10.83;;;;;;;;;;5094012;28;20590;-81
2023/11/11 07:00:10;;;;;;;14.17;11.63;;;;;;;;;;5110940;28;20602;-81
2023/11/11 07:02:37;;;;;;;12.63;10.93;;;;;;;;;;5113973;28;20262;-81
2023/11/11 07:05:09;;;;;;;12.03;10.83;;;;;;;;;;5100181;28;20227;-81
2023/11/11 07:07:40;;;;;;;12.30;10.93;;;;;;;;;;5114464;28;20211;-81
2023/11/11 07:10:07;;;;;;;12.10;10.90;;;;;;;;;;5096074;28;20401;-78
2023/11/11 07:12:34;;;;;;;14.17;11.17;;;;;;;;;;5106071;28;20236;-78
2023/11/11 07:15:01;;;;;;;11.80;10.60;;;;;;;;;;5114009;28;20227;-78
2023/11/11 07:17:32;;;;;;;12.23;11.03;;;;;;;;;;5108140;28;20202;-79
2023/11/11 07:19:59;;;;;;;17.23;15.43;;;;;;;;;;5093259;28;20200;-79
2023/11/11 07:22:27;;;;;;;17.00;15.23;;;;;;;;;;5099831;28;20202;-78
2023/11/11 07:24:54;;;;;;;14.37;12.87;;;;;;;;;;5099812;28;20204;-79
2023/11/11 07:27:21;;;;;;;28.53;22.30;;;;;;;;;;5093129;28;20205;-79
2023/11/11 07:29:48;;;;;;;21.43;17.97;;;;;;;;;;5101570;28;20619;-80
2023/11/11 07:32:15;;;;;;;19.30;14.93;;;;;;;;;;5113161;28;20211;-80
2023/11/11 07:34:43;;;;;;;24.90;17.87;;;;;;;;;;5096223;28;20220;-79
2023/11/11 07:37:11;;;;;;;19.07;14.07;;;;;;;;;;5093067;28;20692;-79
2023/11/11 07:39:39;;;;;;;21.37;18.07;;;;;;;;;;5111105;28;20196;-79
2023/11/11 07:42:07;;;;;;;29.07;24.77;;;;;;;;;;5102179;28;21152;-79
2023/11/11 07:44:34;;;;;;;18.03;16.17;;;;;;;;;;5097669;28;20265;-80
2023/11/11 07:47:07;;;;;;;22.30;18.93;;;;;;;;;;5102016;28;20211;-79
2023/11/11 07:49:33;;;;;;;41.43;32.83;;;;;;;;;;5092852;28;20291;-79
2023/11/11 07:52:05;;;;;;;31.67;26.50;;;;;;;;;;5105929;28;20566;-80
2023/11/11 07:54:33;;;;;;;25.13;21.00;;;;;;;;;;5113247;28;20226;-80
2023/11/11 07:57:00;;;;;;;13.63;12.27;;;;;;;;;;5113161;28;20240;-81
2023/11/11 07:59:28;;;;;;;11.57;8.37;;;;;;;;;;5104498;28;20188;-81
2023/11/11 08:01:55;;;;;;;11.87;10.77;;;;;;;;;;5099592;28;20601;-80
2023/11/11 08:04:22;;;;;;;11.23;9.57;;;;;;;;;;5113187;28;20673;-81
2023/11/11 08:06:49;;;;;;;12.30;11.10;;;;;;;;;;5113413;28;20214;-80
2023/11/11 08:09:17;;;;;;;16.27;14.83;;;;;;;;;;5112269;28;20211;-82
2023/11/11 08:11:45;;;;;;;13.97;12.67;;;;;;;;;;5112597;28;20207;-81
2023/11/11 08:14:12;;;;;;;45.63;32.47;;;;;;;;;;5099735;28;20224;-82
2023/11/11 08:16:39;;;;;;;21.87;16.80;;;;;;;;;;5098671;28;20192;-81
2023/11/11 08:19:06;;;;;;;12.67;10.73;;;;;;;;;;5113378;28;20207;-81
2023/11/11 08:21:34;;;;;;;10.07;8.90;;;;;;;;;;5099377;28;20206;-81
2023/11/11 08:24:01;;;;;;;11.63;9.00;;;;;;;;;;5113088;28;20199;-81
2023/11/11 08:26:29;;;;;;;9.37;8.47;;;;;;;;;;5105606;28;20203;-81
2023/11/11 08:28:56;;;;;;;7.77;7.07;;;;;;;;;;5092117;28;20597;-83
2023/11/11 08:31:23;;;;;;;8.57;7.33;;;;;;;;;;5100386;28;20215;-84
2023/11/11 08:33:50;;;;;;;9.40;8.33;;;;;;;;;;5099927;28;20212;-82
2023/11/11 08:36:17;;;;;;;9.07;7.97;;;;;;;;;;5110469;28;20705;-84
2023/11/11 08:38:44;;;;;;;9.87;7.90;;;;;;;;;;5113393;28;20203;-81
2023/11/11 08:41:12;;;;;;;8.90;8.10;;;;;;;;;;5112638;28;20296;-83
2023/11/11 08:43:40;;;;;;;8.17;7.47;;;;;;;;;;5112569;28;20203;-84
2023/11/11 08:46:10;;;;;;;8.23;7.43;;;;;;;;;;5101428;28;20256;-82
2023/11/11 08:48:40;;;;;;;9.23;8.30;;;;;;;;;;5111302;28;20215;-81
2023/11/11 08:51:07;;;;;;;8.00;7.20;;;;;;;;;;5099144;28;20200;-82
2023/11/11 08:53:34;;;;;;;7.50;6.87;;;;;;;;;;5108690;28;20195;-81
2023/11/11 08:56:01;;;;;;;20.00;17.87;;;;;;;;;;5111878;28;20235;-85
2023/11/11 08:58:28;;;;;;;37.50;31.97;;;;;;;;;;5107554;28;20195;-82
2023/11/11 09:00:57;;;;;;;29.90;26.87;;;;;;;;;;5112005;28;20209;-85
2023/11/11 09:03:23;;;;;;;16.40;14.93;;;;;;;;;;5112138;28;20230;-84
2023/11/11 09:05:50;;;;;;;12.30;10.30;;;;;;;;;;5101443;28;20613;-83
2023/11/11 09:08:17;;;;;;;14.43;13.03;;;;;;;;;;5098174;28;20332;-86
2023/11/11 09:10:44;;;;;;;12.60;11.40;;;;;;;;;;5112679;28;20674;-85
2023/11/11 09:13:11;;;;;;;14.30;12.87;;;;;;;;;;5112447;28;20203;-85
2023/11/11 09:15:38;;;;;;;13.53;12.23;;;;;;;;;;5112315;28;20272;-85
2023/11/11 09:18:07;;;;;;;12.13;11.13;;;;;;;;;;5112440;28;20227;-86
2023/11/11 09:20:34;;;;;;;12.93;10.17;;;;;;;;;;5101241;28;20232;-85
2023/11/11 09:23:03;;;;;;;9.03;8.17;;;;;;;;;;5109944;28;20214;-82
2023/11/11 09:25:30;;;;;;;10.73;9.70;;;;;;;;;;5111402;28;20214;-83
2023/11/11 09:27:57;;;;;;;9.30;8.37;;;;;;;;;;5098310;28;20280;-82
2023/11/11 09:30:24;;;;;;;9.97;9.03;;;;;;;;;;5111366;28;20203;-82
2023/11/11 09:32:53;;;;;;;10.20;9.30;;;;;;;;;;5098189;28;20575;-80
2023/11/11 09:35:22;;;;;;;9.07;8.17;;;;;;;;;;5111386;28;20223;-84
2023/11/11 09:37:49;;;;;;;9.57;8.57;;;;;;;;;;5110723;28;20206;-81
2023/11/11 09:40:16;;;;;;;10.77;9.77;;;;;;;;;;5096306;28;20249;-81
2023/11/11 09:42:43;;;;;;;11.50;10.40;;;;;;;;;;5104575;28;20224;-80
2023/11/11 09:45:12;;;;;;;11.97;10.70;;;;;;;;;;5090551;28;20204;-81
2023/11/11 09:47:42;;;;;;;12.97;10.73;;;;;;;;;;5090807;28;20765;-82
2023/11/11 09:50:10;;;;;;;38.37;32.70;;;;;;;;;;5090272;28;20200;-81
2023/11/11 09:52:38;;;;;;;12.80;11.50;;;;;;;;;;5103941;28;20272;-81
2023/11/11 09:55:07;;;;;;;13.47;12.27;;;;;;;;;;5090807;28;20226;-84
2023/11/11 09:57:37;;;;;;;11.00;9.90;;;;;;;;;;5103849;28;20208;-79
2023/11/11 10:00:05;;;;;;;101.33;75.87;;;;;;;;;;5091018;28;20248;-81
2023/11/11 10:02:32;;;;;;;34.70;28.83;;;;;;;;;;5101112;28;20207;-77
2023/11/11 10:05:03;;;;;;;45.97;41.07;;;;;;;;;;5096588;28;20673;-80
2023/11/11 10:07:30;;;;;;;28.13;25.23;;;;;;;;;;5099265;28;20200;-80
2023/11/11 10:09:59;;;;;;;11.27;10.30;;;;;;;;;;5095635;28;20196;-80
2023/11/11 10:12:26;;;;;;;8.30;7.70;;;;;;;;;;5098441;28;20579;-80
2023/11/11 10:14:53;;;;;;;8.30;7.70;;;;;;;;;;5109523;28;20248;-80
2023/11/11 10:17:20;;;;;;;7.33;6.73;;;;;;;;;;5110583;28;20199;-81
2023/11/11 10:19:48;;;;;;;6.87;6.37;;;;;;;;;;5104972;28;20213;-80
2023/11/11 10:22:15;;;;;;;6.03;5.63;;;;;;;;;;5090654;28;20212;-82
2023/11/11 10:24:45;;;;;;;6.33;5.83;;;;;;;;;;5111444;28;20205;-78
2023/11/11 10:27:13;;;;;;;6.87;6.37;;;;;;;;;;5093782;28;20210;-81
2023/11/11 10:29:40;;;;;;;17.50;16.00;;;;;;;;;;5090144;28;20200;-83
2023/11/11 10:32:10;;;;;;;7.50;7.00;;;;;;;;;;5090496;28;20208;-82
2023/11/11 10:34:37;;;;;;;7.17;6.67;;;;;;;;;;5102458;28;20702;-82
2023/11/11 10:37:05;;;;;;;5.90;5.50;;;;;;;;;;5106304;28;20261;-82
2023/11/11 10:39:34;;;;;;;7.30;6.70;;;;;;;;;;5108565;28;20199;-82
2023/11/11 10:42:04;;;;;;;7.20;6.60;;;;;;;;;;5110548;28;20232;-82
2023/11/11 10:44:32;;;;;;;6.03;5.63;;;;;;;;;;5103083;28;20200;-83
2023/11/11 10:46:59;;;;;;;13.77;12.67;;;;;;;;;;5089941;28;20690;-82
2023/11/11 10:49:26;;;;;;;12.00;10.80;;;;;;;;;;5097756;28;20665;-83
2023/11/11 10:51:56;;;;;;;17.07;15.57;;;;;;;;;;5096648;28;20676;-82
2023/11/11 10:54:25;;;;;;;17.23;15.53;;;;;;;;;;5109558;28;20238;-82
2023/11/11 10:56:53;;;;;;;15.40;14.00;;;;;;;;;;5104434;28;20230;-82
2023/11/11 10:59:20;;;;;;;11.57;10.57;;;;;;;;;;5104590;28;20219;-83
2023/11/11 11:01:48;;;;;;;9.23;8.43;;;;;;;;;;5096846;28;20211;-83
2023/11/11 11:04:15;;;;;;;11.70;10.60;;;;;;;;;;5093820;28;20254;-83
2023/11/11 11:06:49;;;;;;;12.80;11.60;;;;;;;;;;5112050;28;20205;-84
2023/11/11 11:09:24;;;;;;;15.07;13.70;;;;;;;;;;5114194;28;20202;-82
2023/11/11 11:12:00;;;;;;;10.17;9.17;;;;;;;;;;5114189;28;20268;-83
2023/11/11 11:14:33;;;;;;;12.13;10.67;;;;;;;;;;5106340;28;20195;-83
2023/11/11 11:17:04;;;;;;;9.10;8.40;;;;;;;;;;5092824;28;20229;-83
2023/11/11 11:19:31;;;;;;;8.90;8.20;;;;;;;;;;5092181;28;20202;-83
2023/11/11 11:21:58;;;;;;;13.90;12.70;;;;;;;;;;5092734;28;20291;-83
2023/11/11 11:24:25;;;;;;;8.83;8.13;;;;;;;;;;5105593;28;20196;-80
2023/11/11 11:26:52;;;;;;;7.97;7.30;;;;;;;;;;5093500;28;20694;-79
2023/11/11 11:29:21;;;;;;;7.67;7.17;;;;;;;;;;5097619;28;20204;-80
2023/11/11 11:32:08;;;;;;;8.53;7.83;;;;;;;;;;5113261;28;20200;-79
2023/11/11 11:34:36;;;;;;;8.53;7.83;;;;;;;;;;5099658;28;20295;-82
2023/11/11 11:37:03;;;;;;;7.67;7.07;;;;;;;;;;5113731;28;20227;-83
2023/11/11 11:39:39;;;;;;;7.37;6.77;;;;;;;;;;5097604;28;20257;-82
2023/11/11 11:42:17;;;;;;;8.67;7.93;;;;;;;;;;5103848;28;20717;-81
2023/11/11 11:44:54;;;;;;;6.90;6.40;;;;;;;;;;5107584;28;20219;-81
2023/11/11 11:47:23;;;;;;;8.70;7.90;;;;;;;;;;5106416;28;20195;-81
2023/11/11 11:49:50;;;;;;;9.03;8.23;;;;;;;;;;5092981;28;20284;-81
2023/11/11 11:52:18;;;;;;;14.33;13.07;;;;;;;;;;5106411;28;20226;-83
2023/11/11 11:54:45;;;;;;;10.20;9.30;;;;;;;;;;5100643;28;20208;-82
2023/11/11 11:57:14;;;;;;;50.97;45.20;;;;;;;;;;5111625;28;20227;-82
2023/11/11 11:59:41;;;;;;;22.23;20.20;;;;;;;;;;5106475;28;20293;-82
2023/11/11 12:02:09;;;;;;;18.70;16.80;;;;;;;;;;5109832;28;20280;-81
2023/11/11 12:04:37;;;;;;;16.43;14.70;;;;;;;;;;5098111;28;20208;-81
2023/11/11 12:07:07;;;;;;;10.23;9.30;;;;;;;;;;5103522;28;20584;-81
2023/11/11 12:09:35;;;;;;;10.27;9.37;;;;;;;;;;5112710;28;20198;-81
2023/11/11 12:12:07;;;;;;;8.20;7.40;;;;;;;;;;5100430;28;20200;-81
2023/11/11 12:14:34;;;;;;;8.67;7.87;;;;;;;;;;5098393;28;20299;-81
2023/11/11 12:17:03;;;;;;;8.27;7.57;;;;;;;;;;5112716;28;20226;-81
2023/11/11 12:19:43;;;;;;;11.67;10.57;;;;;;;;;;5091906;28;20197;-83
2023/11/11 12:22:12;;;;;;;7.00;6.40;;;;;;;;;;5093823;28;20211;-81
2023/11/11 12:24:41;;;;;;;7.50;6.80;;;;;;;;;;5101964;28;20286;-81
2023/11/11 12:27:08;;;;;;;6.70;6.13;;;;;;;;;;5098946;28;20207;-85
2023/11/11 12:29:40;;;;;;;8.70;7.90;;;;;;;;;;5112917;28;20264;-85
2023/11/11 12:32:07;;;;;;;8.03;7.30;;;;;;;;;;5095129;28;20239;-84
2023/11/11 12:34:34;;;;;;;9.77;8.97;;;;;;;;;;5103584;28;20243;-85
2023/11/11 12:37:04;;;;;;;9.80;9.00;;;;;;;;;;5112504;28;20234;-84
2023/11/11 12:39:33;;;;;;;10.00;9.20;;;;;;;;;;5113155;28;20210;-85
2023/11/11 12:42:04;;;;;;;8.73;7.93;;;;;;;;;;5112727;28;20223;-85
2023/11/11 12:44:35;;;;;;;11.43;10.27;;;;;;;;;;5112518;28;20669;-85
2023/11/11 12:47:08;;;;;;;14.40;13.10;;;;;;;;;;5112992;28;20203;-85
2023/11/11 12:49:38;;;;;;;9.80;8.73;;;;;;;;;;5113071;28;20208;-84
2023/11/11 12:52:14;;;;;;;8.83;8.03;;;;;;;;;;5112680;28;20206;-85
2023/11/11 12:54:42;;;;;;;9.03;8.30;;;;;;;;;;5098633;28;20210;-84
2023/11/11 12:57:10;;;;;;;9.33;8.50;;;;;;;;;;5102826;28;20281;-84
2023/11/11 12:59:37;;;;;;;9.87;9.07;;;;;;;;;;5109440;28;20280;-83
2023/11/11 13:02:04;;;;;;;10.10;9.20;;;;;;;;;;5112405;28;20214;-84
2023/11/11 13:04:31;;;;;;;9.57;8.77;;;;;;;;;;5112073;28;20673;-86
2023/11/11 13:06:59;;;;;;;11.03;9.90;;;;;;;;;;5112794;28;20230;-84
2023/11/11 13:09:40;;;;;;;9.53;8.70;;;;;;;;;;5098202;28;20200;-84
2023/11/11 13:12:09;;;;;;;9.87;9.07;;;;;;;;;;5112567;28;20305;-83
2023/11/11 13:14:36;;;;;;;9.13;8.33;;;;;;;;;;5111037;28;20231;-85
2023/11/11 13:17:04;;;;;;;8.17;7.47;;;;;;;;;;5102176;28;20227;-85
2023/11/11 13:19:34;;;;;;;9.97;9.10;;;;;;;;;;5108060;28;20290;-85
2023/11/11 13:22:05;;;;;;;9.60;8.80;;;;;;;;;;5091674;28;20201;-85
2023/11/11 13:24:31;;;;;;;9.63;8.83;;;;;;;;;;5109330;28;20206;-84
2023/11/11 13:26:59;;;;;;;8.00;7.30;;;;;;;;;;5100780;28;20212;-84
2023/11/11 13:29:28;;;;;;;8.40;7.60;;;;;;;;;;5091877;28;20207;-84
2023/11/11 13:31:55;;;;;;;9.60;8.77;;;;;;;;;;5103544;28;20203;-84
2023/11/11 13:34:23;;;;;;;9.30;8.27;;;;;;;;;;5106939;28;20211;-83
2023/11/11 13:36:50;;;;;;;9.73;8.83;;;;;;;;;;5107688;28;20288;-84
2023/11/11 13:39:26;;;;;;;9.30;7.63;;;;;;;;;;5111339;28;20283;-83
2023/11/11 13:41:53;;;;;;;9.83;8.93;;;;;;;;;;5104988;28;20251;-85
2023/11/11 13:44:21;;;;;;;10.40;9.30;;;;;;;;;;5103674;28;20201;-83
2023/11/11 13:46:50;;;;;;;9.93;8.50;;;;;;;;;;5093198;28;20204;-83
2023/11/11 13:49:17;;;;;;;8.23;7.53;;;;;;;;;;5104669;28;20238;-84
2023/11/11 13:51:45;;;;;;;8.37;7.67;;;;;;;;;;5091194;28;20204;-84
2023/11/11 13:54:11;;;;;;;9.40;8.50;;;;;;;;;;5107226;28;20222;-84
2023/11/11 13:56:38;;;;;;;10.30;9.40;;;;;;;;;;5102536;28;20232;-83
2023/11/11 13:59:08;;;;;;;11.17;10.17;;;;;;;;;;5099988;28;20214;-84
2023/11/11 14:01:35;;;;;;;11.30;10.13;;;;;;;;;;5097921;28;20196;-84
2023/11/11 14:04:02;;;;;;;9.67;8.87;;;;;;;;;;5102377;28;20691;-84
2023/11/11 14:06:32;;;;;;;12.20;10.57;;;;;;;;;;5104701;28;20211;-84
2023/11/11 14:08:59;;;;;;;17.33;15.30;;;;;;;;;;5101725;28;20681;-83
2023/11/11 14:11:27;;;;;;;11.60;10.23;;;;;;;;;;5094303;28;20205;-84
2023/11/11 14:13:54;;;;;;;9.80;8.90;;;;;;;;;;5102203;28;20206;-84
2023/11/11 14:16:23;;;;;;;9.93;8.93;;;;;;;;;;5093551;28;20846;-84
2023/11/11 14:18:50;;;;;;;12.07;10.97;;;;;;;;;;5103063;28;20207;-84
2023/11/11 14:21:18;;;;;;;13.87;12.37;;;;;;;;;;5111608;28;20206;-84
2023/11/11 14:23:45;;;;;;;11.93;10.63;;;;;;;;;;5111130;28;20210;-84
2023/11/11 14:26:12;;;;;;;15.67;12.40;;;;;;;;;;5111509;28;20215;-84
2023/11/11 14:28:38;;;;;;;17.80;13.57;;;;;;;;;;5099169;28;20208;-84
2023/11/11 14:31:06;;;;;;;23.23;21.03;;;;;;;;;;5104766;28;20218;-84
2023/11/11 14:33:33;;;;;;;20.83;18.80;;;;;;;;;;5091106;28;20257;-85
2023/11/11 14:36:00;;;;;;;24.40;21.93;;;;;;;;;;5097662;28;20199;-84